Nearby METAR Reports

 

EGTE - Exeter Airport, United Kingdom
Distance from station: S 19km
Updated: 24/01/2020 14:20
Mostly cloudy
Mostly cloudy
 Wind from calm
Wind: Calm
Temperature: 6°C
Dew Point: 5°C
Humidity: 93%
Barometer: 1022 hPa
Clouds: Mostly cloudy
Visibility: 8 km
Cloud details: Few Clouds 152 m
Mostly cloudy 305 m
2020/01/24 14:20 EGTE 241420Z 00000KT 8000 FEW005 BKN010 06/05 Q1022
EGDY - Yeovilton (navy), United Kingdom
Distance from station: ENE 55km
Updated: 24/01/2020 14:20
Mostly cloudy
Mostly cloudy
 Wind from SW
Wind: SW 2 km/h
Temperature: 7°C
Dew Point: 4°C
Humidity: 81%
Barometer: 1022 hPa
Clouds: Mostly cloudy
Visibility: 10 km
Cloud details: Mostly cloudy 366 m
2020/01/24 14:20 EGDY 241420Z 22001KT 9999 BKN012 07/04 Q1022 NOSIG RMK GRN GRN
 
EGFF - Cardiff-Wales Ar, United Kingdom
Distance from station: N 56km
Updated: 24/01/2020 14:20
Overcast
Overcast
 Wind from varies
Wind: varies 4 km/h
Temperature: 6°C
Dew Point: 5°C
Humidity: 93%
Barometer: 1022 hPa
Clouds: Overcast
Visibility: 10 km
Cloud details: Overcast 244 m
2020/01/24 14:20 EGFF 241420Z VRB02KT 9999 OVC008 06/05 Q1022
EGDX - St Athan Raf, United Kingdom
Distance from station: N 58km
Updated: 01/04/2019 13:50
NOT Current
Clear
Clear
 Wind from E
Wind: E 15 km/h
Temperature: 11°C
Dew Point: 5°C
Humidity: 67%
Barometer: 1019 hPa
Clouds: Clear
Visibility: 10 km
2019/04/01 12:50 EGDX 011250Z AUTO 10008KT 9999 NCD 11/05 Q1019
 
EGGD - Bristol/Lulsgate, United Kingdom
Distance from station: NE 71km
Updated: 24/01/2020 14:20
Overcast
Overcast
 Wind from varies
Wind: varies 6 km/h
Temperature: 6°C
Dew Point: 4°C
Humidity: 87%
Barometer: 1022 hPa
Clouds: Overcast
Visibility: 10 km
Cloud details: Overcast 335 m
2020/01/24 14:20 EGGD 241420Z AUTO VRB03KT 9999 OVC011 06/04 Q1022